EHAM/AMS METAR and TAF weather

Enter ICAO airport designator
Station Type Date Time Source
EHAM METAR 2022/09/26 10:25 UTC NOAA

EHAM 261025Z 21016KT 3500 +SHRA FEW003 BKN006 FEW018TCU 12/12 Q0997 BECMG 26014KT 9999 NSW SCT008 BKN015


Station Type Date Time Source
EHAM Decoded METAR 2022/09/26 10:25 UTC NOAA

Amsterdam Airport Schiphol, Netherlands (EHAM) 52-18N 004-46E -2M
Sep 26, 2022 - 06:25 AM EDT / 2022.09.26 1025 UTC
Wind: from the SSW (210 degrees) at 18 MPH (16 KT):0
Visibility: 2 mile(s):0
Sky conditions: mostly cloudy
Weather: heavy rain showers; Towering cumulus clouds observed
Temperature: 53 F (12 C)
Dew Point: 53 F (12 C)
Relative Humidity: 100%
Pressure (altimeter): 29.44 in. Hg (0997 hPa)
ob: EHAM 261025Z 21016KT 3500 +SHRA FEW003 BKN006 FEW018TCU 12/12 Q0997 BECMG 26014KT 9999 NSW SCT008 BKN015
cycle: 10

Station Type Date Time Source
EHAM TAF 2022/09/26 06:27 UTC NOAA

TAF TAF EHAM 260422Z 2606/2712 20017KT 9999 -RA BKN040
BECMG 2607/2609 7000 BKN014
TEMPO 2608/2612 4000 RA BKN008 PROB40
TEMPO 2610/2614 6000 SHRA BKN014 SCT018TCU
BECMG 2611/2613 22007KT 9999 NSW SCT025
BECMG 2613/2616 31008KT
TEMPO 2614/2712 6000 SHRA SCT022CB BKN025 PROB30
TEMPO 2621/2712 32015G25KT 4000 TSRA SCT018CB BKN022

Example: see airport list